createdAt,value
2023-05-19T00:01:13.218Z,1.08
2023-05-19T00:03:49.131Z,1.33
2023-05-19T00:06:15.778Z,1.25
2023-05-19T00:08:42.398Z,0.98
2023-05-19T00:11:09.330Z,1.05
2023-05-19T00:13:35.936Z,1.17
2023-05-19T00:16:02.707Z,1.08
2023-05-19T00:18:29.317Z,1.10
2023-05-19T00:20:55.874Z,0.90
2023-05-19T00:23:22.410Z,1.13
2023-05-19T00:25:49.060Z,1.05
2023-05-19T00:28:15.602Z,1.15
2023-05-19T00:30:42.197Z,1.00
2023-05-19T00:33:09.043Z,0.88
2023-05-19T00:35:35.630Z,1.20
2023-05-19T00:38:02.305Z,1.42
2023-05-19T00:40:29.318Z,0.88
2023-05-19T00:42:55.889Z,1.10
2023-05-19T00:45:22.479Z,1.38
2023-05-19T00:47:49.118Z,1.00
2023-05-19T00:50:15.732Z,1.23
2023-05-19T00:52:42.328Z,1.42
2023-05-19T00:55:09.053Z,1.20
2023-05-19T00:57:35.732Z,1.13
2023-05-19T01:00:02.458Z,1.00
2023-05-19T01:02:29.115Z,1.88
2023-05-19T01:04:57.112Z,1.58
2023-05-19T01:07:23.708Z,1.08
2023-05-19T01:09:50.289Z,1.35
2023-05-19T01:12:16.827Z,1.38
2023-05-19T01:14:43.422Z,0.88
2023-05-19T01:17:13.029Z,1.40
2023-05-19T01:20:02.836Z,1.10
2023-05-19T01:22:36.749Z,1.00
2023-05-19T01:25:21.568Z,1.48
2023-05-19T01:28:11.944Z,1.20
2023-05-19T01:30:44.652Z,1.00
2023-05-19T01:33:12.920Z,1.13
2023-05-19T01:35:39.777Z,0.90
2023-05-19T01:38:08.810Z,1.50
2023-05-19T01:40:35.573Z,0.90
2023-05-19T01:43:02.142Z,1.10
2023-05-19T01:45:28.957Z,1.38
2023-05-19T01:47:56.933Z,1.27
2023-05-19T01:50:23.582Z,1.25
2023-05-19T01:52:50.304Z,1.05
2023-05-19T01:55:16.928Z,0.80
2023-05-19T01:57:43.449Z,1.27
2023-05-19T02:00:09.987Z,0.68
2023-05-19T02:03:02.582Z,0.70
2023-05-19T02:05:36.430Z,0.60
2023-05-19T02:08:13.471Z,0.93
2023-05-19T02:10:41.228Z,1.10
2023-05-19T02:13:07.844Z,1.40
2023-05-19T02:15:40.301Z,0.93
2023-05-19T02:18:06.973Z,0.85
2023-05-19T02:20:33.778Z,1.15
2023-05-19T02:23:00.670Z,1.33
2023-05-19T02:25:27.265Z,1.10
2023-05-19T02:27:54.624Z,1.00
2023-05-19T02:30:21.245Z,1.35
2023-05-19T02:32:47.839Z,1.48
2023-05-19T02:35:14.477Z,1.40
2023-05-19T02:37:41.081Z,1.25
2023-05-19T02:40:08.337Z,1.02
2023-05-19T02:42:34.964Z,1.35
2023-05-19T02:45:01.565Z,1.08
2023-05-19T02:47:28.234Z,0.98
2023-05-19T02:49:54.867Z,0.75
2023-05-19T02:52:21.454Z,1.02
2023-05-19T02:54:48.047Z,0.95
2023-05-19T02:57:14.667Z,0.82
2023-05-19T02:59:41.301Z,1.48
2023-05-19T03:02:07.923Z,1.20
2023-05-19T03:04:34.618Z,1.15
2023-05-19T03:07:01.126Z,1.42
2023-05-19T03:09:27.744Z,1.70
2023-05-19T03:11:54.344Z,1.17
2023-05-19T03:14:21.048Z,0.85
2023-05-19T03:16:47.843Z,1.10
2023-05-19T03:19:14.556Z,1.17
2023-05-19T03:21:41.154Z,1.73
2023-05-19T03:24:07.776Z,1.92
2023-05-19T03:26:34.616Z,0.98
2023-05-19T03:29:01.271Z,1.23
2023-05-19T03:31:27.864Z,1.20
2023-05-19T03:33:54.429Z,1.48
2023-05-19T03:36:21.001Z,1.35
2023-05-19T03:38:47.583Z,1.55
2023-05-19T03:41:14.185Z,1.40
2023-05-19T03:43:40.768Z,0.80
2023-05-19T03:46:07.384Z,1.30
2023-05-19T03:48:34.024Z,0.90
2023-05-19T03:51:00.616Z,1.50
2023-05-19T03:53:27.254Z,1.23
2023-05-19T03:55:53.783Z,1.30
2023-05-19T03:58:20.341Z,1.27
2023-05-19T04:00:46.899Z,1.02
2023-05-19T04:03:13.641Z,1.50
2023-05-19T04:05:40.368Z,1.15
2023-05-19T04:08:06.927Z,1.55
2023-05-19T04:10:33.649Z,1.00
2023-05-19T04:13:00.380Z,1.48
2023-05-19T04:15:26.963Z,1.45
2023-05-19T04:17:53.525Z,0.90
2023-05-19T04:20:20.146Z,1.02
2023-05-19T04:22:46.734Z,1.70
2023-05-19T04:25:13.278Z,1.35
2023-05-19T04:27:39.873Z,1.00
2023-05-19T04:30:06.913Z,1.45
2023-05-19T04:32:33.586Z,1.58
2023-05-19T04:35:00.241Z,1.70
2023-05-19T04:37:26.917Z,1.70
2023-05-19T04:39:53.530Z,1.67
2023-05-19T04:42:20.301Z,1.23
2023-05-19T04:44:47.289Z,1.80
2023-05-19T04:47:13.874Z,1.30
2023-05-19T04:49:40.461Z,1.25
2023-05-19T04:52:07.749Z,1.70
2023-05-19T04:54:37.990Z,1.33
2023-05-19T04:57:04.787Z,1.30
2023-05-19T04:59:31.430Z,1.73
2023-05-19T05:01:58.116Z,1.38
2023-05-19T05:04:24.752Z,1.33
2023-05-19T05:06:51.289Z,1.63
2023-05-19T05:09:17.895Z,1.35
2023-05-19T05:11:44.791Z,1.23
2023-05-19T05:14:11.599Z,1.23
2023-05-19T05:16:38.418Z,1.15
2023-05-19T05:19:05.226Z,1.75
2023-05-19T05:21:31.998Z,1.20
2023-05-19T05:23:58.758Z,1.38
2023-05-19T05:26:25.320Z,1.58
2023-05-19T05:28:51.924Z,1.58
2023-05-19T05:31:18.565Z,1.40
2023-05-19T05:33:45.172Z,1.20
2023-05-19T05:36:11.764Z,1.17
2023-05-19T05:38:38.413Z,1.90
2023-05-19T05:41:05.037Z,1.10
2023-05-19T05:43:31.636Z,1.33
2023-05-19T05:45:58.251Z,1.40
2023-05-19T05:48:25.192Z,1.05
2023-05-19T05:50:52.787Z,0.80
2023-05-19T05:53:20.373Z,1.17
2023-05-19T05:55:47.786Z,1.30
2023-05-19T05:58:14.456Z,0.77
2023-05-19T06:00:41.771Z,1.10
2023-05-19T06:03:08.496Z,1.30
2023-05-19T06:05:35.652Z,1.25
2023-05-19T06:08:02.336Z,0.98
2023-05-19T06:10:29.066Z,0.93
2023-05-19T06:12:55.713Z,1.45
2023-05-19T06:15:22.542Z,0.90
2023-05-19T06:17:49.157Z,1.00
2023-05-19T06:20:15.803Z,1.27
2023-05-19T06:22:42.381Z,1.00
2023-05-19T06:25:09.194Z,1.40
2023-05-19T06:27:35.998Z,1.13
2023-05-19T06:30:02.782Z,1.13
2023-05-19T06:32:29.400Z,1.00
2023-05-19T06:34:56.088Z,1.13
2023-05-19T06:37:22.793Z,1.73
2023-05-19T06:39:55.268Z,0.85
2023-05-19T06:42:21.888Z,1.35
2023-05-19T06:44:49.776Z,1.10
2023-05-19T06:47:16.954Z,1.10
2023-05-19T06:49:44.534Z,1.10
2023-05-19T06:52:11.573Z,1.08
2023-05-19T06:54:38.280Z,0.50
2023-05-19T06:57:05.106Z,1.10
2023-05-19T06:59:31.735Z,0.57
2023-05-19T07:01:58.392Z,1.10
2023-05-19T07:04:25.079Z,1.33
2023-05-19T07:06:51.719Z,0.80
2023-05-19T07:09:18.328Z,0.70
2023-05-19T07:11:45.296Z,0.63
2023-05-19T07:14:11.929Z,0.80
2023-05-19T07:16:38.567Z,0.70
2023-05-19T07:19:05.241Z,0.65
2023-05-19T07:21:31.833Z,0.80
2023-05-19T07:23:58.351Z,0.52
2023-05-19T07:26:25.020Z,0.50
2023-05-19T07:28:51.678Z,0.90
2023-05-19T07:31:18.294Z,0.60
2023-05-19T07:33:44.932Z,0.57
2023-05-19T07:36:11.520Z,1.10
2023-05-19T07:38:38.174Z,0.88
2023-05-19T07:41:04.902Z,0.60
2023-05-19T07:43:31.533Z,0.80
2023-05-19T07:45:58.290Z,0.60
2023-05-19T07:48:24.859Z,1.02
2023-05-19T07:50:51.955Z,0.70
2023-05-19T07:53:19.360Z,0.60
2023-05-19T07:55:46.419Z,0.80
2023-05-19T07:58:12.989Z,0.70
2023-05-19T08:00:39.604Z,0.90
2023-05-19T08:03:06.336Z,0.68
2023-05-19T08:05:34.046Z,0.80
2023-05-19T08:08:00.656Z,0.90
2023-05-19T08:10:27.289Z,0.77
2023-05-19T08:12:53.897Z,0.70
2023-05-19T08:15:20.730Z,0.93
2023-05-19T08:17:47.476Z,0.50
2023-05-19T08:20:14.089Z,0.65
2023-05-19T08:22:40.727Z,0.52
2023-05-19T08:25:07.460Z,0.63
2023-05-19T08:27:34.051Z,0.88
2023-05-19T08:30:00.712Z,0.57
2023-05-19T08:32:27.340Z,0.80
2023-05-19T08:34:53.940Z,0.70
2023-05-19T08:37:20.483Z,0.88
2023-05-19T08:39:47.053Z,0.75
2023-05-19T08:42:13.599Z,0.85
2023-05-19T08:44:40.213Z,0.55
2023-05-19T08:47:06.771Z,0.90
2023-05-19T08:49:35.359Z,0.70
2023-05-19T08:52:32.178Z,0.85
2023-05-19T08:55:09.104Z,0.68
2023-05-19T08:57:36.332Z,0.40
2023-05-19T09:00:03.812Z,0.80
2023-05-19T09:02:30.424Z,0.57
2023-05-19T09:04:57.157Z,0.85
2023-05-19T09:07:23.823Z,0.40
2023-05-19T09:09:50.465Z,0.90
2023-05-19T09:12:17.027Z,0.57
2023-05-19T09:14:43.559Z,0.60
2023-05-19T09:17:10.261Z,0.70
2023-05-19T09:19:36.903Z,0.70
2023-05-19T09:22:03.615Z,0.90
2023-05-19T09:24:30.340Z,1.05
2023-05-19T09:26:57.946Z,0.40
2023-05-19T09:31:54.411Z,0.68
2023-05-19T09:34:21.668Z,0.65
2023-05-19T09:36:48.370Z,0.45
2023-05-19T09:39:19.101Z,0.63
2023-05-19T09:41:45.962Z,0.85
2023-05-19T09:44:25.462Z,0.43
2023-05-19T09:46:52.463Z,0.55
2023-05-19T09:49:31.593Z,0.63
2023-05-19T09:51:59.313Z,0.60
2023-05-19T09:54:26.141Z,0.80
2023-05-19T09:56:59.130Z,0.60
2023-05-19T09:59:26.078Z,0.70
2023-05-19T10:01:54.655Z,0.75
2023-05-19T10:04:21.381Z,0.35
2023-05-19T10:06:49.772Z,0.40
2023-05-19T10:09:16.388Z,0.45
2023-05-19T10:11:42.953Z,0.52
2023-05-19T10:14:09.608Z,0.70
2023-05-19T10:16:36.205Z,0.52
2023-05-19T10:19:02.846Z,0.77
2023-05-19T10:21:29.513Z,0.70
2023-05-19T10:23:56.092Z,0.57
2023-05-19T10:26:22.615Z,0.90
2023-05-19T10:28:49.248Z,0.65
2023-05-19T10:31:17.157Z,0.75
2023-05-19T10:34:09.186Z,0.75
2023-05-19T10:36:47.710Z,1.08
2023-05-19T10:39:28.303Z,0.77
2023-05-19T10:42:15.887Z,0.40
2023-05-19T10:44:48.867Z,0.52
2023-05-19T10:47:15.574Z,0.90
2023-05-19T10:49:42.394Z,0.80
2023-05-19T10:52:24.391Z,0.45
2023-05-19T10:54:50.990Z,0.82
2023-05-19T10:57:17.996Z,0.52
2023-05-19T10:59:44.610Z,0.60
2023-05-19T11:02:11.394Z,0.80
2023-05-19T11:04:51.942Z,0.68
2023-05-19T11:07:18.971Z,0.50
2023-05-19T11:09:49.056Z,0.40
2023-05-19T11:12:15.614Z,0.80
2023-05-19T11:14:42.184Z,0.70
2023-05-19T11:17:08.762Z,0.52
2023-05-19T11:19:35.513Z,0.70
2023-05-19T11:22:08.669Z,0.30
2023-05-19T11:24:47.798Z,0.40
2023-05-19T11:27:23.264Z,0.43
2023-05-19T11:29:49.959Z,0.75
2023-05-19T11:32:16.662Z,0.52
2023-05-19T11:34:44.305Z,0.55
2023-05-19T11:37:10.904Z,1.27
2023-05-19T11:39:37.559Z,0.95
2023-05-19T11:42:04.371Z,0.60
2023-05-19T11:44:32.110Z,0.50
2023-05-19T11:46:59.273Z,0.63
2023-05-19T11:49:25.897Z,0.68
2023-05-19T11:51:52.471Z,0.60
2023-05-19T11:54:19.013Z,0.52
2023-05-19T11:56:45.598Z,0.57
2023-05-19T11:59:12.194Z,0.50
2023-05-19T12:01:38.773Z,0.50
2023-05-19T12:04:08.633Z,0.82
2023-05-19T12:06:35.230Z,0.75
2023-05-19T12:09:01.905Z,0.73
2023-05-19T12:11:28.716Z,0.60
2023-05-19T12:14:01.722Z,0.45
2023-05-19T12:16:35.054Z,0.55
2023-05-19T12:19:02.170Z,0.80
2023-05-19T12:21:33.799Z,0.90
2023-05-19T12:24:01.074Z,0.73
2023-05-19T12:26:27.769Z,0.50
2023-05-19T12:28:54.958Z,0.68
2023-05-19T12:31:21.558Z,0.63
2023-05-19T12:33:51.336Z,0.60
2023-05-19T12:36:18.481Z,0.50
2023-05-19T12:38:45.214Z,0.50
2023-05-19T12:41:12.156Z,0.47
2023-05-19T12:43:39.709Z,0.43
2023-05-19T12:46:10.485Z,0.70
2023-05-19T12:48:41.205Z,0.52
2023-05-19T12:51:07.778Z,0.47
2023-05-19T12:53:34.387Z,0.50
2023-05-19T12:56:00.957Z,0.40
2023-05-19T12:58:27.559Z,0.82
2023-05-19T13:00:58.789Z,0.45
2023-05-19T13:03:25.447Z,0.73
2023-05-19T13:05:52.095Z,0.63
2023-05-19T13:08:22.018Z,0.50
2023-05-19T13:10:48.707Z,0.70
2023-05-19T13:13:15.428Z,0.77
2023-05-19T13:15:44.276Z,0.95
2023-05-19T13:18:12.238Z,0.55
2023-05-19T13:20:39.502Z,0.38
2023-05-19T13:23:06.154Z,0.45
2023-05-19T13:25:35.868Z,0.47
2023-05-19T13:28:02.889Z,0.38
2023-05-19T13:30:29.467Z,0.40
2023-05-19T13:32:56.155Z,0.55
2023-05-19T13:35:22.887Z,0.70
2023-05-19T13:37:49.637Z,0.60
2023-05-19T13:40:16.375Z,0.43
2023-05-19T13:42:42.993Z,0.60
2023-05-19T13:45:09.824Z,1.05
2023-05-19T13:47:36.463Z,0.75
2023-05-19T13:50:03.936Z,0.60
2023-05-19T13:52:30.670Z,0.80
2023-05-19T13:54:57.276Z,0.60
2023-05-19T13:57:24.106Z,0.52
2023-05-19T14:00:01.692Z,0.50
2023-05-19T14:02:29.739Z,0.65
2023-05-19T14:04:56.632Z,0.70
2023-05-19T14:07:23.231Z,1.20
2023-05-19T14:09:49.873Z,0.50
2023-05-19T14:12:16.511Z,0.52
2023-05-19T14:14:43.143Z,0.55
2023-05-19T14:17:09.751Z,0.57
2023-05-19T14:19:36.345Z,0.55
2023-05-19T14:22:03.068Z,0.55
2023-05-19T14:24:29.677Z,0.40
2023-05-19T14:26:56.267Z,0.60
2023-05-19T14:29:22.829Z,0.55
2023-05-19T14:31:49.484Z,0.50
2023-05-19T14:34:16.169Z,0.40
2023-05-19T14:36:42.770Z,0.50
2023-05-19T14:39:09.346Z,0.55
2023-05-19T14:41:35.974Z,0.55
2023-05-19T14:44:02.579Z,0.45
2023-05-19T14:46:29.194Z,0.50
2023-05-19T14:48:55.843Z,0.40
2023-05-19T14:51:22.442Z,0.45
2023-05-19T14:53:49.015Z,0.43
2023-05-19T14:56:15.558Z,0.60
2023-05-19T14:58:42.132Z,0.65
2023-05-19T15:01:08.766Z,0.60
2023-05-19T15:03:35.401Z,0.60
2023-05-19T15:06:01.978Z,0.50
2023-05-19T15:08:28.578Z,0.40
2023-05-19T15:10:55.112Z,0.70
2023-05-19T15:13:21.744Z,0.50
2023-05-19T15:15:58.907Z,0.68
2023-05-19T15:18:31.558Z,0.63
2023-05-19T15:20:58.157Z,0.47
2023-05-19T15:23:24.684Z,0.45
2023-05-19T15:25:51.266Z,0.40
2023-05-19T15:28:17.894Z,0.57
2023-05-19T15:30:44.483Z,0.60
2023-05-19T15:33:11.869Z,0.50
2023-05-19T15:35:38.871Z,0.57
2023-05-19T15:38:05.576Z,0.60
2023-05-19T15:40:33.142Z,0.70
2023-05-19T15:42:59.965Z,0.47
2023-05-19T15:45:26.645Z,0.80
2023-05-19T15:47:53.265Z,0.65
2023-05-19T15:50:22.940Z,0.60
2023-05-19T15:52:49.602Z,0.38
2023-05-19T15:55:19.195Z,0.65
2023-05-19T15:57:45.822Z,0.30
2023-05-19T16:00:12.879Z,0.40
2023-05-19T16:02:39.590Z,0.50
2023-05-19T16:05:06.422Z,0.70
2023-05-19T16:07:33.003Z,0.47
2023-05-19T16:09:59.603Z,0.43
2023-05-19T16:12:26.198Z,0.40
2023-05-19T16:14:52.798Z,0.43
2023-05-19T16:17:19.416Z,0.28
2023-05-19T16:19:45.964Z,0.43
2023-05-19T16:22:12.653Z,0.38
2023-05-19T16:24:39.291Z,0.60
2023-05-19T16:27:05.854Z,0.50
2023-05-19T16:29:32.403Z,0.50
2023-05-19T16:31:58.986Z,0.40
2023-05-19T16:34:25.676Z,0.30
2023-05-19T16:36:52.278Z,0.38
2023-05-19T16:39:18.881Z,0.40
2023-05-19T16:41:45.483Z,0.45
2023-05-19T16:44:12.072Z,0.50
2023-05-19T16:46:38.777Z,0.77
2023-05-19T16:49:06.001Z,0.30
2023-05-19T16:51:32.580Z,0.55
2023-05-19T16:53:59.154Z,0.50
2023-05-19T16:56:25.750Z,0.60
2023-05-19T16:58:52.493Z,0.57
2023-05-19T17:01:19.182Z,0.77
2023-05-19T17:03:45.840Z,0.60
2023-05-19T17:06:12.507Z,0.30
2023-05-19T17:08:39.124Z,0.45
2023-05-19T17:11:05.820Z,0.50
2023-05-19T17:13:32.480Z,0.30
2023-05-19T17:15:59.415Z,0.40
2023-05-19T17:18:25.989Z,0.30
2023-05-19T17:20:52.594Z,0.38
2023-05-19T17:23:19.229Z,0.40
2023-05-19T17:25:46.120Z,0.60
2023-05-19T17:28:12.769Z,0.43
2023-05-19T17:30:39.898Z,0.40
2023-05-19T17:33:06.830Z,0.50
2023-05-19T17:35:33.632Z,0.50
2023-05-19T17:38:00.249Z,0.47
2023-05-19T17:40:27.010Z,0.63
2023-05-19T17:42:53.762Z,0.30
2023-05-19T17:45:20.370Z,0.55
2023-05-19T17:47:47.012Z,0.20
2023-05-19T17:50:13.723Z,0.40
2023-05-19T17:52:40.568Z,0.43
2023-05-19T17:55:07.946Z,0.28
2023-05-19T17:57:34.523Z,0.40
2023-05-19T18:00:01.350Z,0.52
2023-05-19T18:02:28.127Z,0.22
2023-05-19T18:04:55.188Z,0.22
2023-05-19T18:07:21.791Z,0.52
2023-05-19T18:09:48.540Z,0.50
2023-05-19T18:12:15.200Z,0.30
2023-05-19T18:14:41.724Z,0.50
2023-05-19T18:17:08.304Z,0.60
2023-05-19T18:19:34.887Z,0.70
2023-05-19T18:22:01.469Z,0.32
2023-05-19T18:24:28.111Z,0.47
2023-05-19T18:26:54.767Z,0.15
2023-05-19T18:29:21.364Z,0.60
2023-05-19T18:31:47.951Z,0.28
2023-05-19T18:34:14.540Z,0.50
2023-05-19T18:36:41.307Z,0.60
2023-05-19T18:39:07.920Z,0.22
2023-05-19T18:41:34.510Z,0.52
2023-05-19T18:44:01.314Z,0.32
2023-05-19T18:46:28.025Z,0.40
2023-05-19T18:48:54.653Z,0.40
2023-05-19T18:51:21.222Z,0.63
2023-05-19T18:53:47.813Z,0.40
2023-05-19T18:56:14.387Z,0.20
2023-05-19T18:58:41.094Z,0.30
2023-05-19T19:01:07.695Z,0.35
2023-05-19T19:03:34.387Z,0.45
2023-05-19T19:06:01.130Z,0.32
2023-05-19T19:08:27.736Z,0.40
2023-05-19T19:10:54.309Z,0.30
2023-05-19T19:13:20.998Z,0.17
2023-05-19T19:15:47.600Z,0.30
2023-05-19T19:18:14.947Z,0.30
2023-05-19T19:20:41.642Z,0.43
2023-05-19T19:23:08.289Z,0.25
2023-05-19T19:25:34.989Z,0.32
2023-05-19T19:28:01.608Z,0.30
2023-05-19T19:30:28.832Z,0.20
2023-05-19T19:32:55.490Z,0.20
2023-05-19T19:35:22.209Z,0.32
2023-05-19T19:37:48.790Z,0.50
2023-05-19T19:40:15.390Z,0.35
2023-05-19T19:42:41.967Z,0.43
2023-05-19T19:45:09.047Z,0.50
2023-05-19T19:47:35.622Z,0.40
2023-05-19T19:50:02.233Z,0.30
2023-05-19T19:52:28.831Z,0.47
2023-05-19T19:54:55.377Z,0.40
2023-05-19T19:57:22.012Z,0.35
2023-05-19T19:59:48.617Z,0.32
2023-05-19T22:01:03.259Z,0.30
2023-05-19T22:03:30.054Z,0.30
2023-05-19T22:05:56.721Z,0.50
2023-05-19T22:08:23.295Z,0.22
2023-05-19T22:10:49.990Z,0.30
2023-05-19T22:13:16.586Z,0.35
2023-05-19T22:15:43.152Z,0.20
2023-05-19T22:18:09.744Z,0.15
2023-05-19T22:20:36.310Z,0.20
2023-05-19T22:23:02.906Z,0.22
2023-05-19T22:25:29.738Z,0.15
2023-05-19T22:27:56.363Z,0.38
2023-05-19T22:30:23.163Z,0.28
2023-05-19T22:32:49.821Z,0.38
2023-05-19T22:35:16.418Z,0.20
2023-05-19T22:37:42.962Z,0.38
2023-05-19T22:40:09.746Z,0.50
2023-05-19T22:42:36.284Z,0.30
2023-05-19T22:45:02.884Z,0.30
2023-05-19T22:47:29.517Z,0.20
2023-05-19T22:49:57.155Z,0.30
2023-05-19T22:52:23.936Z,0.30
2023-05-19T22:54:50.444Z,0.40
2023-05-19T22:57:17.093Z,0.40
2023-05-19T22:59:43.648Z,0.40
2023-05-19T23:02:10.220Z,0.30
2023-05-19T23:04:36.903Z,0.20
2023-05-19T23:07:03.551Z,0.45
2023-05-19T23:09:30.136Z,0.40
2023-05-19T23:11:56.722Z,0.43
2023-05-19T23:14:23.273Z,0.30
2023-05-19T23:16:49.959Z,0.15
2023-05-19T23:19:16.549Z,0.20
2023-05-19T23:21:43.171Z,0.30
2023-05-19T23:24:09.783Z,0.20
2023-05-19T23:26:36.337Z,0.28
2023-05-19T23:29:02.946Z,0.30
2023-05-19T23:31:29.599Z,0.43
2023-05-19T23:33:56.241Z,0.10
2023-05-19T23:36:22.795Z,0.10
2023-05-19T23:38:49.377Z,0.30
2023-05-19T23:41:15.956Z,0.28
2023-05-19T23:43:42.480Z,0.15
2023-05-19T23:46:09.188Z,0.20
2023-05-19T23:48:35.843Z,0.22
2023-05-19T23:51:02.423Z,0.30
2023-05-19T23:53:28.955Z,0.35
2023-05-19T23:55:56.459Z,0.17
2023-05-19T23:58:23.782Z,0.10
